Time;durP1;ratioP1;P1;durP2;ratioP2;P2;SDS_P1;SDS_P2;PMS_P1;PMS_P2;Temp;Humidity;BMP_temperature;BMP_pressure;BME280_temperature;BME280_humidity;BME280_pressure;Samples;Min_cycle;Max_cycle;Signal;HPM_P1;HPM_P2
2022/10/04 00:01:02;;;;;;;13.17;6.30;;;10.80;99.50;;;;;;20912756;28;20204;-80
2022/10/04 00:11:22;;;;;;;13.03;6.57;;;10.60;99.50;;;;;;20909415;28;20695;-70
2022/10/04 00:22:09;;;;;;;8.37;6.13;;;10.60;99.30;;;;;;20917003;28;20211;-77
2022/10/04 00:32:10;;;;;;;11.60;6.27;;;10.60;99.50;;;;;;20927752;28;20231;-80
2022/10/04 00:42:21;;;;;;;13.83;6.47;;;10.50;99.00;;;;;;20927386;28;20211;-78
2022/10/04 00:52:29;;;;;;;11.40;6.00;;;10.50;99.20;;;;;;20927170;28;20717;-75
2022/10/04 01:02:45;;;;;;;11.17;5.93;;;10.50;99.50;;;;;;20928441;28;20205;-78
2022/10/04 01:13:03;;;;;;;12.50;5.43;;;10.60;99.40;;;;;;20939367;28;20641;-78
2022/10/04 01:23:07;;;;;;;18.40;7.27;;;10.60;99.20;;;;;;20935269;28;20616;-77
2022/10/04 01:33:11;;;;;;;20.37;7.40;;;10.60;99.50;;;;;;20922812;28;20262;-77
2022/10/04 01:43:17;;;;;;;14.80;7.20;;;10.60;99.60;;;;;;20922627;28;20250;-78
2022/10/04 01:53:29;;;;;;;22.53;7.50;;;10.60;99.90;;;;;;20921685;28;20247;-77
2022/10/04 02:03:35;;;;;;;31.30;7.57;;;10.70;99.90;;;;;;20922292;28;20568;-77
2022/10/04 02:13:39;;;;;;;33.10;7.70;;;10.70;99.90;;;;;;20920185;28;20675;-79
2022/10/04 02:23:42;;;;;;;15.93;7.10;;;10.60;99.90;;;;;;20919339;28;20209;-79
2022/10/04 02:33:46;;;;;;;62.50;8.80;;;10.60;99.90;;;;;;20918730;28;20576;-78
2022/10/04 02:44:07;;;;;;;19.47;7.67;;;10.60;99.90;;;;;;20917640;28;20211;-78
2022/10/04 02:54:26;;;;;;;20.40;7.63;;;10.60;99.90;;;;;;20916757;28;20713;-74
2022/10/04 03:04:36;;;;;;;31.73;7.57;;;10.60;99.90;;;;;;20916266;28;20697;-75
2022/10/04 03:14:39;;;;;;;81.30;8.47;;;10.60;99.90;;;;;;20915696;28;20238;-80
2022/10/04 03:24:46;;;;;;;21.97;6.27;;;10.50;99.90;;;;;;20917674;28;20672;-80
2022/10/04 03:34:55;;;;;;;46.73;6.97;;;10.20;99.90;;;;;;20919146;28;20258;-78
2022/10/04 03:45:01;;;;;;;65.20;7.93;;;10.30;99.90;;;;;;20916919;28;20231;-77
2022/10/04 03:55:06;;;;;;;61.37;7.10;;;10.30;99.90;;;;;;20918432;28;20307;-73
2022/10/04 04:05:31;;;;;;;52.83;7.30;;;10.20;99.90;;;;;;20917192;28;20214;-69
2022/10/04 04:15:33;;;;;;;15.83;6.93;;;10.20;99.90;;;;;;20914917;28;20687;-70
2022/10/04 04:25:38;;;;;;;17.73;6.70;;;10.00;99.90;;;;;;20915227;28;20209;-72
2022/10/04 04:35:40;;;;;;;11.83;6.30;;;10.20;99.90;;;;;;20914224;28;20241;-73
2022/10/04 04:45:41;;;;;;;14.80;5.90;;;10.20;99.90;;;;;;20911946;28;20638;-73
2022/10/04 04:55:50;;;;;;;18.90;6.10;;;10.30;99.90;;;;;;20912150;28;20703;-72
2022/10/04 05:06:25;;;;;;;8.40;5.37;;;10.20;99.90;;;;;;20920627;28;20212;-78
2022/10/04 05:16:42;;;;;;;7.20;5.50;;;10.20;99.90;;;;;;20923956;28;20231;-79
2022/10/04 05:26:48;;;;;;;12.40;6.00;;;10.20;99.90;;;;;;20923231;28;20637;-77
2022/10/04 05:37:18;;;;;;;58.47;6.70;;;10.20;99.90;;;;;;20921467;28;20236;-80
2022/10/04 05:47:23;;;;;;;14.63;6.67;;;10.20;99.90;;;;;;20922530;28;20938;-79
2022/10/04 05:57:36;;;;;;;14.30;6.27;;;9.90;99.90;;;;;;20922371;28;20237;-79
2022/10/04 06:07:52;;;;;;;9.63;6.47;;;9.90;99.90;;;;;;20920009;28;20211;-78
2022/10/04 06:18:01;;;;;;;10.87;6.73;;;10.00;99.90;;;;;;20919730;28;20682;-77
2022/10/04 06:28:33;;;;;;;12.90;6.87;;;10.10;99.90;;;;;;20918479;28;20223;-75
2022/10/04 06:38:52;;;;;;;10.50;6.70;;;10.10;99.90;;;;;;20925627;28;20212;-74
2022/10/04 06:49:12;;;;;;;10.47;7.03;;;10.30;99.90;;;;;;20916708;28;20298;-78
2022/10/04 06:59:29;;;;;;;12.93;7.23;;;10.30;99.90;;;;;;20916602;28;20848;-72
2022/10/04 07:09:31;;;;;;;9.77;7.33;;;10.50;99.90;;;;;;20914992;28;20238;-72
2022/10/04 07:19:40;;;;;;;13.93;7.90;;;10.50;99.90;;;;;;20912108;28;20211;-77
2022/10/04 07:29:45;;;;;;;9.23;7.00;;;10.60;99.90;;;;;;20912960;28;20235;-77
2022/10/04 07:40:16;;;;;;;10.57;7.67;;;10.70;99.90;;;;;;20913663;28;20201;-79
2022/10/04 07:50:29;;;;;;;10.37;7.33;;;10.90;99.90;;;;;;20912184;28;20610;-79
2022/10/04 08:00:48;;;;;;;13.73;7.17;;;10.90;99.90;;;;;;20912484;28;20216;-78
2022/10/04 08:11:21;;;;;;;9.97;7.93;;;11.10;99.90;;;;;;20911811;28;20235;-76
2022/10/04 08:21:35;;;;;;;9.20;6.57;;;11.30;99.90;;;;;;20917224;28;20211;-78
2022/10/04 08:32:03;;;;;;;13.43;8.77;;;11.50;99.90;;;;;;20913149;28;20234;-76
2022/10/04 08:42:47;;;;;;;10.10;7.63;;;11.80;99.90;;;;;;20916630;28;20206;-79
2022/10/04 08:53:06;;;;;;;11.53;8.10;;;11.90;99.90;;;;;;20925902;28;20696;-80
2022/10/04 09:03:35;;;;;;;10.40;6.87;;;12.10;99.80;;;;;;20924620;28;20306;-75
2022/10/04 09:14:08;;;;;;;12.17;6.70;;;12.40;99.50;;;;;;20924669;28;20265;-76
2022/10/04 09:24:19;;;;;;;13.30;6.60;;;12.90;98.70;;;;;;20923168;28;20204;-79
2022/10/04 09:34:56;;;;;;;9.80;6.10;;;12.90;98.80;;;;;;20922436;28;20239;-75
2022/10/04 09:45:29;;;;;;;14.90;6.17;;;13.30;98.10;;;;;;20910297;28;20722;-77
2022/10/04 09:55:49;;;;;;;9.37;6.00;;;13.50;98.00;;;;;;20919274;28;20703;-73
2022/10/04 10:06:25;;;;;;;12.97;5.87;;;14.10;97.70;;;;;;20919328;28;20212;-78
2022/10/04 10:16:52;;;;;;;11.47;5.10;;;14.20;97.80;;;;;;20918731;28;20246;-79
2022/10/04 10:27:18;;;;;;;9.33;5.20;;;14.80;96.90;;;;;;20917832;28;20223;-75
2022/10/04 10:37:50;;;;;;;8.67;4.73;;;14.90;96.70;;;;;;20917046;28;20714;-80
2022/10/04 10:47:59;;;;;;;10.50;4.67;;;15.10;96.30;;;;;;20913839;28;20711;-77
2022/10/04 10:58:38;;;;;;;8.17;3.87;;;15.20;96.50;;;;;;20915495;28;20242;-75
2022/10/04 11:09:33;;;;;;;8.57;3.63;;;15.40;96.30;;;;;;20913399;28;20234;-78
2022/10/04 11:20:25;;;;;;;6.37;3.43;;;15.50;95.70;;;;;;20906300;28;20204;-78
2022/10/04 11:30:55;;;;;;;6.07;2.93;;;15.50;96.00;;;;;;20913202;28;20232;-78
2022/10/04 11:41:12;;;;;;;7.73;4.17;;;15.80;95.90;;;;;;20921596;28;20258;-80
2022/10/04 11:51:57;;;;;;;7.00;3.00;;;16.40;95.20;;;;;;20945697;28;20721;-79
2022/10/04 12:02:31;;;;;;;4.80;2.53;;;16.50;95.30;;;;;;20912728;28;20211;-79
2022/10/04 12:12:53;;;;;;;7.70;2.97;;;17.10;93.80;;;;;;20911489;28;20232;-79
2022/10/04 12:23:07;;;;;;;8.53;2.50;;;17.20;93.50;;;;;;20927921;28;20209;-79
2022/10/04 12:33:14;;;;;;;5.90;1.90;;;17.40;92.70;;;;;;20928345;28;20257;-74
2022/10/04 12:43:39;;;;;;;6.17;2.00;;;17.60;91.40;;;;;;20932423;28;20211;-80
2022/10/04 12:53:40;;;;;;;3.63;1.67;;;17.60;91.50;;;;;;20936779;28;20232;-77
2022/10/04 13:04:00;;;;;;;5.70;1.87;;;17.60;90.70;;;;;;20931681;28;20221;-77
2022/10/04 13:14:04;;;;;;;4.37;2.03;;;17.60;89.20;;;;;;20935536;28;20692;-78
2022/10/04 13:24:28;;;;;;;4.80;1.77;;;17.60;88.30;;;;;;20923964;28;20208;-77
2022/10/04 13:34:39;;;;;;;3.40;1.87;;;17.70;88.50;;;;;;20920879;28;20237;-80
2022/10/04 13:45:09;;;;;;;5.10;2.07;;;17.70;87.60;;;;;;20921762;28;20231;-79
2022/10/04 14:06:33;;;;;;;3.00;1.80;;;17.70;86.90;;;;;;20920310;28;20240;-77
2022/10/04 14:16:59;;;;;;;3.60;1.97;;;17.90;86.60;;;;;;20918864;28;20232;-80
2022/10/04 14:27:57;;;;;;;4.37;1.80;;;18.30;85.40;;;;;;20917606;28;20209;-76
2022/10/04 14:38:14;;;;;;;4.40;1.97;;;18.30;84.80;;;;;;20864139;28;20231;-77
2022/10/04 14:48:45;;;;;;;4.10;1.73;;;18.40;83.90;;;;;;20916540;28;20242;-76
2022/10/04 14:59:08;;;;;;;4.77;1.90;;;19.10;82.70;;;;;;20916958;28;20211;-76
2022/10/04 15:09:47;;;;;;;4.93;2.07;;;19.50;79.40;;;;;;20915630;28;20235;-75
2022/10/04 15:20:09;;;;;;;4.03;2.00;;;19.50;79.70;;;;;;20914983;28;20233;-78
2022/10/04 15:30:49;;;;;;;4.63;2.80;;;18.70;79.90;;;;;;20914481;28;20277;-78
2022/10/04 15:41:04;;;;;;;6.83;2.70;;;18.20;80.80;;;;;;20893628;28;20202;-72
2022/10/04 15:51:16;;;;;;;18.83;3.00;;;17.70;81.50;;;;;;20911438;28;20250;-72
2022/10/04 16:01:38;;;;;;;5.13;2.03;;;17.60;82.70;;;;;;20911742;28;20201;-80
2022/10/04 16:12:03;;;;;;;4.47;2.30;;;17.20;84.00;;;;;;20911003;28;20271;-75
2022/10/04 16:22:29;;;;;;;5.33;2.80;;;17.20;84.90;;;;;;20910055;28;20660;-78
2022/10/04 16:33:05;;;;;;;7.40;3.07;;;16.90;86.10;;;;;;20907130;28;20236;-73
2022/10/04 16:43:15;;;;;;;8.43;2.90;;;16.70;88.20;;;;;;20911276;28;20265;-78
2022/10/04 16:53:39;;;;;;;9.83;3.30;;;16.50;89.80;;;;;;20908483;28;20242;-79
2022/10/04 17:04:02;;;;;;;7.37;2.87;;;16.30;90.80;;;;;;20921108;28;20575;-80
2022/10/04 17:14:31;;;;;;;9.03;3.23;;;16.00;91.50;;;;;;20945157;28;20234;-79
2022/10/04 17:24:36;;;;;;;8.83;4.20;;;15.80;92.20;;;;;;20914279;28;20208;-78
2022/10/04 17:34:47;;;;;;;7.87;4.53;;;15.60;92.70;;;;;;20923110;28;20242;-73
2022/10/04 17:45:10;;;;;;;6.07;4.40;;;15.40;93.20;;;;;;20921465;28;20229;-72
2022/10/04 17:55:27;;;;;;;16.33;9.53;;;15.10;93.60;;;;;;20920535;28;20289;-77
2022/10/04 18:05:44;;;;;;;10.23;6.43;;;14.90;94.50;;;;;;20953947;28;20211;-73
2022/10/04 18:16:14;;;;;;;11.47;7.53;;;14.70;94.80;;;;;;20999656;28;20241;-76
2022/10/04 18:26:17;;;;;;;11.70;7.10;;;14.60;95.50;;;;;;21000530;28;20204;-72
2022/10/04 18:36:26;;;;;;;17.47;10.23;;;14.90;96.10;;;;;;20993689;28;20278;-76
2022/10/04 18:46:39;;;;;;;15.70;10.13;;;14.20;95.80;;;;;;20915767;28;20243;-75
2022/10/04 18:57:17;;;;;;;17.10;9.70;;;13.80;96.20;;;;;;20914871;28;20300;-75
2022/10/04 19:07:25;;;;;;;15.57;9.80;;;13.80;96.70;;;;;;20915029;28;20212;-76
2022/10/04 19:18:08;;;;;;;14.03;8.60;;;13.60;97.00;;;;;;20912952;28;20235;-75
2022/10/04 19:28:26;;;;;;;11.30;7.90;;;13.60;97.50;;;;;;20911137;28;20576;-76
2022/10/04 19:38:50;;;;;;;13.63;8.43;;;13.40;97.70;;;;;;20911412;28;20587;-76
2022/10/04 19:48:52;;;;;;;14.30;9.53;;;13.40;98.00;;;;;;20910541;28;20243;-76
2022/10/04 19:59:09;;;;;;;13.13;9.23;;;13.30;98.20;;;;;;20910543;28;20238;-76
2022/10/04 20:09:28;;;;;;;14.37;9.30;;;13.10;98.40;;;;;;20910149;28;20662;-74
2022/10/04 20:30:53;;;;;;;16.70;9.17;;;12.90;98.70;;;;;;20800392;28;20233;-74
2022/10/04 20:40:55;;;;;;;18.93;9.13;;;12.80;98.90;;;;;;20836735;28;20262;-72
2022/10/04 20:51:07;;;;;;;15.00;8.00;;;12.70;99.10;;;;;;20842242;28;20236;-71
2022/10/04 21:11:45;;;;;;;11.93;7.23;;;12.50;99.40;;;;;;20840514;28;20289;-75
2022/10/04 21:21:48;;;;;;;12.00;8.07;;;12.50;99.40;;;;;;20836998;28;20429;-75
2022/10/04 21:31:49;;;;;;;10.67;7.00;;;12.40;99.20;;;;;;20840605;28;20292;-75
2022/10/04 21:41:51;;;;;;;13.10;7.00;;;12.30;99.60;;;;;;20840493;28;20201;-73
2022/10/04 21:51:53;;;;;;;16.30;6.57;;;12.30;99.50;;;;;;20839125;28;20241;-73
2022/10/04 22:01:54;;;;;;;19.70;8.20;;;12.10;99.50;;;;;;20838879;28;20206;-75
2022/10/04 22:11:56;;;;;;;12.80;7.73;;;12.10;99.50;;;;;;20838217;28;20233;-75
2022/10/04 22:21:58;;;;;;;12.30;7.80;;;12.00;99.40;;;;;;20837827;28;20204;-73
2022/10/04 22:31:59;;;;;;;13.20;8.10;;;11.80;99.20;;;;;;20836204;28;20280;-74
2022/10/04 22:42:02;;;;;;;12.47;7.43;;;11.80;99.40;;;;;;20835790;28;20207;-75
2022/10/04 22:52:12;;;;;;;15.27;6.93;;;11.70;99.20;;;;;;20834808;28;20251;-72
2022/10/04 23:02:28;;;;;;;13.83;6.23;;;11.60;99.40;;;;;;20834538;28;20216;-76
2022/10/04 23:12:29;;;;;;;13.37;7.10;;;11.60;99.60;;;;;;20833639;28;20246;-72
2022/10/04 23:22:31;;;;;;;10.87;6.10;;;11.50;99.30;;;;;;20833004;28;20648;-71
2022/10/04 23:32:33;;;;;;;8.00;5.93;;;11.40;99.20;;;;;;20832458;28;20267;-71
2022/10/04 23:42:35;;;;;;;9.87;5.50;;;11.40;99.50;;;;;;20831349;28;20665;-74
2022/10/04 23:52:39;;;;;;;13.50;5.47;;;11.30;99.40;;;;;;20831360;28;20290;-73
